Time;durP1;ratioP1;P1;durP2;ratioP2;P2;SDS_P1;SDS_P2;PMS_P1;PMS_P2;Temp;Humidity;BMP_temperature;BMP_pressure;BME280_temperature;BME280_humidity;BME280_pressure;Samples;Min_cycle;Max_cycle;Signal;HPM_P1;HPM_P2
2021/04/25 00:01:06;;;;;;;5.45;2.05;;;21.10;35.50;;;;;;5093308;28;20024;-49
2021/04/25 00:03:32;;;;;;;4.68;2.70;;;21.10;35.50;;;;;;5092904;28;20044;-45
2021/04/25 00:05:57;;;;;;;2.97;1.98;;;21.10;35.50;;;;;;5093300;28;20027;-48
2021/04/25 00:08:23;;;;;;;4.47;1.92;;;21.10;35.50;;;;;;5092810;28;20089;-45
2021/04/25 00:10:49;;;;;;;4.40;2.03;;;21.00;35.50;;;;;;5093649;28;20030;-46
2021/04/25 00:13:14;;;;;;;4.10;2.03;;;21.10;35.50;;;;;;5092180;28;20034;-50
2021/04/25 00:15:40;;;;;;;5.45;2.30;;;21.10;35.50;;;;;;5092533;28;20047;-49
2021/04/25 00:18:06;;;;;;;3.58;2.17;;;21.10;35.50;;;;;;5093835;28;20035;-45
2021/04/25 00:20:32;;;;;;;4.40;2.15;;;21.00;35.60;;;;;;5092445;28;20020;-47
2021/04/25 00:22:57;;;;;;;4.38;2.47;;;21.00;35.50;;;;;;5093280;28;20060;-47
2021/04/25 00:25:23;;;;;;;3.20;1.85;;;21.00;35.60;;;;;;5092440;28;20115;-48
2021/04/25 00:27:50;;;;;;;4.10;2.47;;;21.00;35.60;;;;;;5093545;28;20024;-49
2021/04/25 00:30:18;;;;;;;5.90;2.20;;;21.00;35.50;;;;;;5093336;28;20457;-46
2021/04/25 00:32:45;;;;;;;3.05;2.10;;;21.00;35.50;;;;;;5092425;28;20020;-50
2021/04/25 00:35:12;;;;;;;3.13;1.90;;;21.00;35.90;;;;;;5093358;28;20032;-46
2021/04/25 00:37:38;;;;;;;7.18;2.53;;;21.00;35.60;;;;;;5092307;28;20651;-46
2021/04/25 00:40:09;;;;;;;4.25;2.20;;;21.00;35.50;;;;;;5093228;28;20038;-46
2021/04/25 00:42:34;;;;;;;4.28;2.17;;;21.00;35.60;;;;;;5092330;28;20082;-51
2021/04/25 00:45:07;;;;;;;3.60;2.25;;;21.00;35.60;;;;;;5092918;28;20059;-50
2021/04/25 00:47:32;;;;;;;4.03;2.30;;;21.00;35.60;;;;;;5091926;28;20024;-45
2021/04/25 00:49:58;;;;;;;5.65;2.20;;;21.00;35.60;;;;;;5092798;28;20028;-48
2021/04/25 00:52:24;;;;;;;3.63;2.30;;;21.00;35.70;;;;;;5091593;28;20020;-52
2021/04/25 00:54:50;;;;;;;3.28;2.10;;;21.00;35.60;;;;;;5091252;28;20035;-46
2021/04/25 00:57:17;;;;;;;6.05;2.15;;;20.90;35.50;;;;;;5092785;28;20028;-46
2021/04/25 00:59:43;;;;;;;4.75;2.22;;;21.00;35.60;;;;;;5092508;28;20047;-47
2021/04/25 01:02:09;;;;;;;2.83;1.63;;;21.00;35.60;;;;;;5093043;28;20107;-48
2021/04/25 01:04:36;;;;;;;3.85;2.22;;;21.00;35.60;;;;;;5091952;28;20052;-49
2021/04/25 01:07:03;;;;;;;4.25;2.22;;;21.00;35.70;;;;;;5092677;28;20035;-48
2021/04/25 01:09:32;;;;;;;4.15;1.90;;;21.00;35.90;;;;;;5091391;28;20036;-50
2021/04/25 01:11:58;;;;;;;3.78;2.28;;;21.00;35.90;;;;;;5092547;28;20028;-47
2021/04/25 01:14:24;;;;;;;5.22;2.67;;;21.00;36.00;;;;;;5091476;28;20028;-55
2021/04/25 01:16:50;;;;;;;4.32;1.90;;;21.00;36.10;;;;;;5092193;28;20028;-46
2021/04/25 01:19:16;;;;;;;3.70;2.13;;;21.00;36.10;;;;;;5092496;28;20054;-45
2021/04/25 01:21:41;;;;;;;4.32;1.98;;;20.90;36.10;;;;;;5091148;28;20061;-47
2021/04/25 01:24:07;;;;;;;5.13;2.90;;;21.00;36.20;;;;;;5092167;28;20097;-46
2021/04/25 01:26:33;;;;;;;3.70;2.03;;;20.90;36.20;;;;;;5091507;28;20043;-49
2021/04/25 01:28:59;;;;;;;4.35;2.15;;;21.00;36.20;;;;;;5091649;28;20023;-45
2021/04/25 01:31:25;;;;;;;4.47;2.25;;;20.90;36.10;;;;;;5090926;28;20111;-48
2021/04/25 01:33:50;;;;;;;4.07;1.80;;;21.00;36.30;;;;;;5091786;28;20036;-46
2021/04/25 01:36:16;;;;;;;4.82;2.30;;;20.90;36.10;;;;;;5092477;28;20091;-47
2021/04/25 01:38:41;;;;;;;2.50;1.85;;;21.00;36.30;;;;;;5091343;28;20460;-48
2021/04/25 01:41:07;;;;;;;4.00;2.00;;;20.90;36.20;;;;;;5090889;28;20032;-48
2021/04/25 01:43:33;;;;;;;3.15;1.75;;;21.00;36.20;;;;;;5091325;28;20024;-48
2021/04/25 01:45:59;;;;;;;4.32;2.35;;;20.90;36.20;;;;;;5091889;28;20107;-47
2021/04/25 01:48:25;;;;;;;7.35;1.88;;;20.90;36.20;;;;;;5090997;28;20490;-47
2021/04/25 01:50:50;;;;;;;2.63;2.00;;;20.90;36.20;;;;;;5091354;28;20031;-48
2021/04/25 01:53:16;;;;;;;4.03;2.20;;;20.90;36.20;;;;;;5091655;28;20409;-48
2021/04/25 01:55:42;;;;;;;3.00;1.98;;;20.90;36.30;;;;;;5090558;28;20105;-46
2021/04/25 01:58:12;;;;;;;2.28;1.60;;;20.90;36.30;;;;;;5091629;28;20074;-48
2021/04/25 02:00:43;;;;;;;2.97;2.00;;;20.90;36.20;;;;;;5090971;28;20499;-50
2021/04/25 02:03:10;;;;;;;4.90;1.90;;;20.90;36.30;;;;;;5091297;28;20063;-49
2021/04/25 02:05:37;;;;;;;3.13;1.90;;;20.90;36.30;;;;;;5082685;28;20529;-49
2021/04/25 02:08:05;;;;;;;3.10;1.98;;;20.90;36.30;;;;;;5091744;28;20028;-46
2021/04/25 02:10:31;;;;;;;3.50;1.90;;;20.90;36.30;;;;;;5090700;28;20032;-47
2021/04/25 02:12:57;;;;;;;2.65;1.80;;;20.90;36.30;;;;;;5091572;28;20085;-50
2021/04/25 02:15:24;;;;;;;3.28;1.77;;;20.90;36.20;;;;;;5090378;28;20511;-54
2021/04/25 02:17:50;;;;;;;3.20;2.10;;;20.90;36.30;;;;;;5091318;28;20036;-48
2021/04/25 02:20:18;;;;;;;5.38;1.95;;;20.90;36.20;;;;;;5091449;28;20457;-49
2021/04/25 02:22:44;;;;;;;3.85;1.92;;;20.90;36.30;;;;;;5089901;28;20036;-46
2021/04/25 02:25:11;;;;;;;2.63;1.92;;;20.80;36.30;;;;;;5091211;28;20031;-48
2021/04/25 02:27:37;;;;;;;3.35;1.80;;;20.90;36.30;;;;;;5090619;28;20036;-47
2021/04/25 02:30:09;;;;;;;5.85;2.17;;;20.90;36.40;;;;;;5090884;28;20070;-47
2021/04/25 02:32:34;;;;;;;4.95;1.85;;;20.90;36.30;;;;;;5090801;28;20032;-49
2021/04/25 02:35:00;;;;;;;4.68;1.98;;;20.80;36.30;;;;;;5090802;28;20047;-46
2021/04/25 02:37:26;;;;;;;3.08;1.95;;;20.80;36.30;;;;;;5092882;28;20031;-47
2021/04/25 02:39:51;;;;;;;3.78;2.33;;;20.80;36.30;;;;;;5095658;28;20466;-47
2021/04/25 02:42:17;;;;;;;3.83;1.90;;;20.90;36.30;;;;;;5095309;28;20034;-48
2021/04/25 02:44:43;;;;;;;6.07;2.60;;;20.90;36.40;;;;;;5094454;28;20028;-48
2021/04/25 02:47:08;;;;;;;4.53;1.80;;;20.80;36.30;;;;;;5094976;28;20578;-47
2021/04/25 02:49:34;;;;;;;4.05;1.92;;;20.80;36.30;;;;;;5093951;28;20427;-49
2021/04/25 02:51:59;;;;;;;3.30;2.00;;;20.80;36.30;;;;;;5095457;28;20047;-48
2021/04/25 02:54:25;;;;;;;4.90;2.22;;;20.80;36.30;;;;;;5093905;28;20078;-47
2021/04/25 02:56:51;;;;;;;3.00;1.90;;;20.80;36.40;;;;;;5095641;28;20032;-46
2021/04/25 02:59:16;;;;;;;3.22;1.70;;;20.80;36.40;;;;;;5094752;28;20032;-45
2021/04/25 03:01:42;;;;;;;2.33;1.70;;;20.80;36.40;;;;;;5094428;28;20446;-45
2021/04/25 03:04:08;;;;;;;4.13;2.40;;;20.80;36.40;;;;;;5094850;28;20488;-50
2021/04/25 03:06:36;;;;;;;3.40;2.15;;;20.80;36.30;;;;;;5093943;28;20106;-48
2021/04/25 03:09:03;;;;;;;2.90;1.88;;;20.80;36.40;;;;;;5094960;28;20024;-48
2021/04/25 03:11:28;;;;;;;3.10;1.83;;;20.80;36.40;;;;;;5093984;28;20036;-47
2021/04/25 03:13:54;;;;;;;4.00;2.00;;;20.80;36.40;;;;;;5094688;28;20036;-46
2021/04/25 03:16:20;;;;;;;2.22;1.75;;;20.80;36.50;;;;;;5094296;28;20024;-49
2021/04/25 03:18:45;;;;;;;2.55;1.95;;;20.80;36.40;;;;;;5094055;28;20031;-45
2021/04/25 03:21:11;;;;;;;3.17;2.22;;;20.80;36.40;;;;;;5094221;28;20024;-47
2021/04/25 03:23:37;;;;;;;3.65;1.88;;;20.80;36.40;;;;;;5093642;28;20032;-47
2021/04/25 03:26:03;;;;;;;3.50;2.33;;;20.80;36.40;;;;;;5084517;28;20024;-43
2021/04/25 03:28:28;;;;;;;3.22;1.75;;;20.80;36.50;;;;;;5093850;28;20388;-47
2021/04/25 03:30:55;;;;;;;4.90;2.08;;;20.80;36.50;;;;;;5094740;28;20024;-50
2021/04/25 03:33:22;;;;;;;3.35;2.20;;;20.80;36.50;;;;;;5093958;28;20510;-49
2021/04/25 03:35:48;;;;;;;4.05;1.90;;;20.80;36.50;;;;;;5093733;28;20032;-49
2021/04/25 03:38:13;;;;;;;3.30;1.70;;;20.80;36.50;;;;;;5094382;28;20102;-48
2021/04/25 03:40:39;;;;;;;4.07;2.08;;;20.80;36.50;;;;;;5093421;28;20104;-48
2021/04/25 03:43:05;;;;;;;2.83;1.98;;;20.80;36.60;;;;;;5094298;28;20031;-49
2021/04/25 03:45:30;;;;;;;3.13;1.80;;;20.80;36.60;;;;;;5092946;28;20032;-51
2021/04/25 03:47:56;;;;;;;4.40;1.90;;;20.80;36.60;;;;;;5092706;28;20107;-51
2021/04/25 03:50:25;;;;;;;3.47;2.17;;;20.80;36.60;;;;;;5093887;28;20028;-54
2021/04/25 03:52:51;;;;;;;3.00;1.80;;;20.80;36.60;;;;;;5093925;28;20428;-48
2021/04/25 03:55:18;;;;;;;4.80;1.90;;;20.70;36.50;;;;;;5093513;28;20039;-51
2021/04/25 03:57:44;;;;;;;1.90;1.52;;;20.80;36.60;;;;;;5093027;28;20028;-47
2021/04/25 04:00:12;;;;;;;6.10;2.17;;;20.80;36.60;;;;;;5093768;28;20070;-46
2021/04/25 04:02:38;;;;;;;3.13;1.80;;;20.70;36.50;;;;;;5093208;28;20098;-46
2021/04/25 04:05:05;;;;;;;5.50;2.10;;;20.80;36.70;;;;;;5093921;28;20044;-50
2021/04/25 04:07:31;;;;;;;4.57;2.13;;;20.80;36.60;;;;;;5092765;28;20060;-47
2021/04/25 04:09:57;;;;;;;3.60;2.08;;;20.70;36.60;;;;;;5093917;28;20055;-45
2021/04/25 04:12:22;;;;;;;3.90;2.10;;;20.70;36.60;;;;;;5093488;28;20055;-53
2021/04/25 04:14:48;;;;;;;3.20;1.90;;;20.70;36.50;;;;;;5092997;28;20119;-44
2021/04/25 04:17:14;;;;;;;4.30;1.75;;;20.70;36.60;;;;;;5093554;28;20479;-42
2021/04/25 04:19:40;;;;;;;2.90;1.98;;;20.70;36.60;;;;;;5091499;28;20054;-45
2021/04/25 04:22:06;;;;;;;4.35;1.77;;;20.70;36.50;;;;;;5093598;28;20086;-44
2021/04/25 04:24:32;;;;;;;3.22;1.80;;;20.70;36.60;;;;;;5091403;28;20488;-45
2021/04/25 04:26:58;;;;;;;2.63;1.80;;;20.70;36.60;;;;;;5093630;28;20036;-47
2021/04/25 04:29:24;;;;;;;3.50;2.63;;;20.70;36.50;;;;;;5092885;28;20032;-55
2021/04/25 04:31:49;;;;;;;2.38;1.70;;;20.70;37.20;;;;;;5093137;28;20031;-46
2021/04/25 04:34:18;;;;;;;3.65;1.98;;;20.70;36.50;;;;;;5092855;28;20473;-47
2021/04/25 04:36:43;;;;;;;2.67;2.10;;;20.70;36.60;;;;;;5092647;28;20039;-45
2021/04/25 04:39:09;;;;;;;2.50;2.00;;;20.70;36.60;;;;;;5093280;28;20020;-47
2021/04/25 04:41:35;;;;;;;3.35;1.75;;;20.70;36.50;;;;;;5092383;28;20073;-45
2021/04/25 04:44:00;;;;;;;2.53;1.77;;;20.70;36.60;;;;;;5092885;28;20109;-41
2021/04/25 04:46:29;;;;;;;3.50;1.80;;;20.70;36.60;;;;;;5092519;28;20028;-54
2021/04/25 04:48:57;;;;;;;3.88;1.80;;;20.70;36.50;;;;;;5092682;28;20092;-47
2021/04/25 04:51:23;;;;;;;3.35;1.95;;;20.70;36.60;;;;;;5092935;28;20094;-53
2021/04/25 04:53:48;;;;;;;2.78;1.83;;;20.70;36.50;;;;;;5092191;28;20131;-42
2021/04/25 04:56:14;;;;;;;3.50;2.08;;;20.70;36.50;;;;;;5092862;28;20132;-45
2021/04/25 04:58:40;;;;;;;2.30;1.80;;;20.60;37.10;;;;;;5092120;28;20028;-46
2021/04/25 05:01:05;;;;;;;2.85;1.73;;;20.70;36.70;;;;;;5092049;28;20051;-45
2021/04/25 05:03:31;;;;;;;2.53;1.88;;;20.70;36.60;;;;;;5091509;28;20044;-45
2021/04/25 05:05:59;;;;;;;3.17;2.20;;;20.70;36.50;;;;;;5092570;28;20036;-45
2021/04/25 05:08:25;;;;;;;3.78;1.90;;;20.70;36.60;;;;;;5092025;28;20028;-53
2021/04/25 05:10:51;;;;;;;2.95;2.00;;;20.70;36.60;;;;;;5092426;28;20051;-47
2021/04/25 05:13:17;;;;;;;8.27;2.40;;;20.70;36.60;;;;;;5092273;28;20024;-44
2021/04/25 05:15:43;;;;;;;6.00;2.25;;;20.60;36.50;;;;;;5085683;28;20035;-45
2021/04/25 05:18:09;;;;;;;10.07;2.50;;;20.70;36.70;;;;;;5092758;28;20024;-49
2021/04/25 05:20:35;;;;;;;3.22;1.90;;;20.70;36.90;;;;;;5091445;28;20028;-50
2021/04/25 05:23:04;;;;;;;4.38;2.00;;;20.70;36.60;;;;;;5092244;28;20078;-47
2021/04/25 05:25:30;;;;;;;5.07;2.15;;;20.70;36.50;;;;;;5091118;28;20036;-53
2021/04/25 05:27:55;;;;;;;2.53;1.70;;;20.80;36.50;;;;;;5091916;28;20461;-45
2021/04/25 05:30:22;;;;;;;4.60;2.35;;;20.80;36.50;;;;;;5092405;28;20024;-49
2021/04/25 05:32:48;;;;;;;5.10;1.60;;;20.90;36.40;;;;;;5091369;28;20036;-52
2021/04/25 05:35:14;;;;;;;4.20;2.10;;;20.90;36.40;;;;;;5091694;28;20089;-55
2021/04/25 05:37:40;;;;;;;7.35;2.13;;;20.90;36.40;;;;;;5091032;28;20358;-50
2021/04/25 05:40:07;;;;;;;4.28;2.25;;;21.00;36.20;;;;;;5091913;28;20119;-46
2021/04/25 05:42:34;;;;;;;4.95;1.95;;;21.00;36.10;;;;;;5091224;28;20035;-52
2021/04/25 05:45:00;;;;;;;4.28;2.00;;;21.00;36.00;;;;;;5091644;28;20161;-53
2021/04/25 05:47:29;;;;;;;6.10;2.53;;;21.10;36.00;;;;;;5091506;28;20515;-56
2021/04/25 05:49:55;;;;;;;4.32;2.00;;;21.10;35.80;;;;;;5091996;28;20024;-51
2021/04/25 05:52:21;;;;;;;5.35;3.03;;;21.10;35.80;;;;;;5091849;28;20162;-43
2021/04/25 05:54:50;;;;;;;6.68;2.28;;;21.10;35.70;;;;;;5090518;28;20058;-46
2021/04/25 05:57:15;;;;;;;4.45;2.30;;;21.10;35.70;;;;;;5091656;28;20111;-45
2021/04/25 05:59:41;;;;;;;4.72;2.08;;;21.10;35.70;;;;;;5090688;28;20024;-52
2021/04/25 06:02:10;;;;;;;6.40;2.20;;;21.10;36.00;;;;;;5090426;28;20055;-43
2021/04/25 06:04:41;;;;;;;5.63;2.38;;;21.10;36.70;;;;;;5090466;28;20509;-47
2021/04/25 06:07:06;;;;;;;4.53;2.10;;;21.20;36.00;;;;;;5091611;28;20384;-47
2021/04/25 06:09:32;;;;;;;2.97;2.08;;;21.20;35.80;;;;;;5090671;28;20038;-43
2021/04/25 06:11:58;;;;;;;6.93;2.13;;;21.20;35.60;;;;;;5090500;28;20056;-53
2021/04/25 06:14:23;;;;;;;3.50;2.20;;;21.20;35.80;;;;;;5091128;28;20127;-53
2021/04/25 06:16:49;;;;;;;4.88;2.35;;;21.30;35.70;;;;;;5086340;28;20058;-61
2021/04/25 06:19:15;;;;;;;6.05;2.35;;;21.30;35.80;;;;;;5086224;28;20377;-55
2021/04/25 06:21:41;;;;;;;12.57;2.67;;;21.10;35.90;;;;;;5085207;28;20077;-57
2021/04/25 06:24:08;;;;;;;6.22;2.13;;;21.20;35.70;;;;;;5084230;28;20494;-57
2021/04/25 06:26:33;;;;;;;3.03;2.10;;;21.20;35.60;;;;;;5086252;28;20078;-47
2021/04/25 06:29:00;;;;;;;3.53;2.65;;;21.20;35.50;;;;;;5084925;28;20052;-58
2021/04/25 06:31:26;;;;;;;7.22;2.85;;;21.30;35.40;;;;;;5087828;28;20043;-57
2021/04/25 06:33:52;;;;;;;3.03;2.17;;;21.30;35.40;;;;;;5083964;28;20583;-57
2021/04/25 06:36:18;;;;;;;4.70;1.90;;;21.30;35.70;;;;;;5090194;28;20107;-56
2021/04/25 06:38:44;;;;;;;7.80;2.33;;;21.30;35.80;;;;;;5090066;28;20042;-56
2021/04/25 06:41:09;;;;;;;5.10;2.50;;;21.30;35.80;;;;;;5090818;28;20099;-49
2021/04/25 06:43:35;;;;;;;9.82;2.42;;;21.30;36.00;;;;;;5090138;28;20028;-51
2021/04/25 06:46:02;;;;;;;8.13;2.95;;;21.30;36.10;;;;;;5091455;28;20020;-52
2021/04/25 06:48:29;;;;;;;5.45;2.38;;;21.20;36.20;;;;;;5090289;28;20043;-54
2021/04/25 06:50:54;;;;;;;6.07;2.50;;;21.20;36.20;;;;;;5090485;28;20062;-53
2021/04/25 06:53:21;;;;;;;5.65;2.50;;;21.30;36.20;;;;;;5090835;28;20040;-55
2021/04/25 06:55:47;;;;;;;6.80;2.10;;;21.30;36.30;;;;;;5089923;28;20047;-54
2021/04/25 06:58:12;;;;;;;4.72;2.42;;;21.40;36.30;;;;;;5091054;28;20469;-52
2021/04/25 07:00:38;;;;;;;5.10;2.42;;;21.30;36.50;;;;;;5090335;28;20484;-57
2021/04/25 07:03:04;;;;;;;4.68;2.58;;;21.30;36.30;;;;;;5090351;28;20076;-56
2021/04/25 07:05:30;;;;;;;5.13;2.10;;;21.40;36.30;;;;;;5090478;28;20039;-55
2021/04/25 07:07:57;;;;;;;4.53;2.83;;;21.30;36.30;;;;;;5091095;28;20038;-60
2021/04/25 07:10:24;;;;;;;7.00;3.22;;;21.40;36.40;;;;;;5088141;28;20032;-55
2021/04/25 07:12:51;;;;;;;9.85;3.42;;;21.30;35.30;;;;;;5083722;28;20043;-44
2021/04/25 07:15:19;;;;;;;6.07;3.97;;;21.30;34.40;;;;;;5084259;28;20044;-49
2021/04/25 07:17:46;;;;;;;7.43;4.13;;;21.00;33.80;;;;;;5083418;28;20030;-56
2021/04/25 07:20:12;;;;;;;10.18;5.03;;;20.90;33.70;;;;;;5083196;28;20074;-57
2021/04/25 07:22:40;;;;;;;10.27;4.60;;;20.70;33.50;;;;;;5083243;28;20039;-54
2021/04/25 07:25:08;;;;;;;7.28;4.43;;;20.50;34.20;;;;;;5090228;28;20040;-54
2021/04/25 07:27:34;;;;;;;6.43;3.88;;;20.60;34.30;;;;;;5085294;28;20028;-52
2021/04/25 07:30:00;;;;;;;7.72;3.80;;;20.80;34.90;;;;;;5082622;28;20110;-46
2021/04/25 07:32:26;;;;;;;9.32;3.83;;;20.90;34.90;;;;;;5089103;28;20107;-45
2021/04/25 07:34:52;;;;;;;10.45;3.58;;;21.20;35.10;;;;;;5087021;28;20036;-47
2021/04/25 07:37:18;;;;;;;8.45;3.47;;;21.30;34.90;;;;;;5083048;28;20516;-50
2021/04/25 07:39:44;;;;;;;6.07;2.90;;;21.40;35.00;;;;;;5084474;28;20013;-49
2021/04/25 07:42:11;;;;;;;8.18;3.33;;;21.40;34.90;;;;;;5086182;28;20043;-50
2021/04/25 07:44:40;;;;;;;10.05;3.42;;;21.50;35.10;;;;;;5087409;28;20236;-49
2021/04/25 07:47:08;;;;;;;7.32;2.95;;;21.50;35.10;;;;;;5085309;28;20029;-49
2021/04/25 07:49:34;;;;;;;9.68;3.00;;;21.60;35.20;;;;;;5083859;28;20021;-52
2021/04/25 07:52:00;;;;;;;7.75;3.60;;;21.60;35.20;;;;;;5085933;28;20024;-50
2021/04/25 07:54:26;;;;;;;7.60;3.30;;;21.60;35.10;;;;;;5088216;28;20142;-48
2021/04/25 07:56:53;;;;;;;10.60;4.00;;;21.60;35.10;;;;;;5088784;28;20020;-53
2021/04/25 07:59:22;;;;;;;9.15;2.75;;;21.60;35.30;;;;;;5082692;28;20038;-53
2021/04/25 08:01:48;;;;;;;6.97;2.78;;;21.70;35.40;;;;;;5091356;28;20716;-57
2021/04/25 08:04:20;;;;;;;6.10;2.88;;;21.60;35.30;;;;;;5092727;28;20076;-55
2021/04/25 08:06:46;;;;;;;5.95;2.97;;;21.60;35.30;;;;;;5084698;28;20392;-53
2021/04/25 08:09:12;;;;;;;6.30;2.80;;;21.50;35.30;;;;;;5086591;28;20027;-49
2021/04/25 08:11:37;;;;;;;5.40;2.88;;;21.50;35.60;;;;;;5082920;28;20032;-53
2021/04/25 08:14:04;;;;;;;7.45;3.08;;;21.50;35.70;;;;;;5088226;28;20032;-44
2021/04/25 08:16:29;;;;;;;4.82;3.05;;;21.40;35.70;;;;;;5087683;28;20035;-56
2021/04/25 08:18:56;;;;;;;4.28;2.67;;;21.40;35.80;;;;;;5084835;28;20023;-52
2021/04/25 08:21:27;;;;;;;9.13;2.85;;;21.40;35.90;;;;;;5080290;28;20033;-53
2021/04/25 08:23:53;;;;;;;9.13;2.88;;;21.40;36.00;;;;;;5086956;28;20066;-49
2021/04/25 08:26:19;;;;;;;6.40;3.03;;;21.30;36.00;;;;;;5087167;28;20024;-51
2021/04/25 08:28:44;;;;;;;5.63;2.95;;;21.40;36.10;;;;;;5083626;28;20056;-54
2021/04/25 08:31:10;;;;;;;6.18;3.05;;;21.40;36.20;;;;;;5085618;28;20028;-56
2021/04/25 08:33:37;;;;;;;5.70;2.65;;;21.30;36.20;;;;;;5085164;28;20060;-54
2021/04/25 08:36:05;;;;;;;4.78;2.72;;;21.30;36.30;;;;;;5082430;28;20071;-55
2021/04/25 08:38:31;;;;;;;4.65;2.50;;;21.30;36.30;;;;;;5086278;28;20081;-55
2021/04/25 08:40:59;;;;;;;4.70;2.78;;;21.30;36.40;;;;;;5084805;28;20036;-54
2021/04/25 08:43:26;;;;;;;4.53;2.70;;;21.30;36.40;;;;;;5087209;28;20090;-53
2021/04/25 08:45:52;;;;;;;4.38;3.15;;;21.30;36.50;;;;;;5086945;28;20039;-45
2021/04/25 08:48:22;;;;;;;5.38;3.40;;;21.30;36.50;;;;;;5087213;28;20028;-49
2021/04/25 08:50:48;;;;;;;3.92;2.60;;;21.30;36.50;;;;;;5081950;28;20644;-47
2021/04/25 08:53:14;;;;;;;5.20;2.70;;;21.20;36.50;;;;;;5088296;28;20454;-50
2021/04/25 08:55:40;;;;;;;6.35;2.50;;;21.30;36.80;;;;;;5090373;28;20044;-53
2021/04/25 08:58:06;;;;;;;6.65;2.65;;;21.30;37.00;;;;;;5088838;28;20031;-53
2021/04/25 09:00:32;;;;;;;4.53;2.47;;;21.30;36.90;;;;;;5086660;28;20031;-53
2021/04/25 09:02:57;;;;;;;4.65;3.03;;;21.30;36.70;;;;;;5085531;28;20032;-52
2021/04/25 09:05:23;;;;;;;7.88;3.13;;;21.40;36.60;;;;;;5086720;28;20101;-43
2021/04/25 09:08:00;;;;;;;5.25;3.00;;;21.40;36.90;;;;;;5085341;28;20024;-50
2021/04/25 09:10:33;;;;;;;7.18;3.00;;;21.50;36.80;;;;;;5084937;28;20097;-52
2021/04/25 09:12:59;;;;;;;3.90;2.65;;;21.50;36.80;;;;;;5084279;28;20457;-43
2021/04/25 09:15:30;;;;;;;7.50;3.00;;;21.50;36.60;;;;;;5087831;28;20040;-50
2021/04/25 09:18:04;;;;;;;8.45;2.95;;;21.60;36.50;;;;;;5088627;28;20103;-53
2021/04/25 09:20:40;;;;;;;5.35;3.00;;;21.60;36.40;;;;;;5088328;28;20047;-55
2021/04/25 09:23:10;;;;;;;6.10;2.60;;;21.60;36.40;;;;;;5084742;28;20077;-49
2021/04/25 09:25:37;;;;;;;6.47;3.15;;;21.60;36.40;;;;;;5083887;28;20031;-50
2021/04/25 09:28:17;;;;;;;3.78;2.20;;;21.60;36.30;;;;;;5086751;28;20533;-54
2021/04/25 09:30:58;;;;;;;4.35;2.88;;;21.60;36.40;;;;;;5088697;28;20032;-52
2021/04/25 09:33:28;;;;;;;6.65;2.80;;;21.50;36.40;;;;;;5084466;28;20033;-51
2021/04/25 09:35:56;;;;;;;6.80;2.63;;;21.50;36.60;;;;;;5085046;28;20063;-53
2021/04/25 09:38:22;;;;;;;6.72;2.60;;;21.40;37.00;;;;;;5092155;28;20020;-49
2021/04/25 09:40:50;;;;;;;4.90;2.55;;;21.50;37.00;;;;;;5091910;28;20092;-55
2021/04/25 09:43:19;;;;;;;6.15;3.00;;;21.50;37.50;;;;;;5091715;28;20054;-50
2021/04/25 09:45:50;;;;;;;4.03;2.85;;;21.60;37.50;;;;;;5089723;28;20043;-43
2021/04/25 09:48:19;;;;;;;;;;;21.70;37.30;;;;;;5092385;28;20108;-49
2021/04/25 09:50:45;;;;;;;5.57;2.60;;;21.60;37.00;;;;;;5091255;28;19960;-51
2021/04/25 09:53:19;;;;;;;8.73;3.50;;;21.70;37.00;;;;;;5091350;28;20103;-48
2021/04/25 09:55:58;;;;;;;5.88;2.88;;;21.60;36.90;;;;;;5090941;28;20054;-52
2021/04/25 09:58:27;;;;;;;7.35;3.70;;;21.50;36.90;;;;;;5091618;28;20434;-51
2021/04/25 10:00:52;;;;;;;6.70;3.50;;;21.50;37.30;;;;;;5091045;28;20284;-50
2021/04/25 10:03:19;;;;;;;7.82;3.13;;;21.50;37.50;;;;;;5091455;28;20115;-51
2021/04/25 10:06:06;;;;;;;10.45;3.75;;;21.50;37.70;;;;;;5091208;28;20060;-52
2021/04/25 10:08:36;;;;;;;7.57;3.47;;;21.50;38.80;;;;;;5090733;28;20039;-53
2021/04/25 10:11:07;;;;;;;8.07;3.65;;;21.40;38.70;;;;;;5091798;28;20028;-49
2021/04/25 10:13:44;;;;;;;7.97;3.33;;;21.50;38.60;;;;;;5089129;28;20035;-52
2021/04/25 10:16:10;;;;;;;16.38;4.63;;;21.50;38.30;;;;;;5084524;28;20059;-46
2021/04/25 10:18:36;;;;;;;7.45;3.88;;;21.50;38.50;;;;;;5091105;28;20024;-48
2021/04/25 10:21:02;;;;;;;10.73;4.10;;;21.50;38.60;;;;;;5086587;28;20465;-44
2021/04/25 10:23:27;;;;;;;16.17;3.85;;;21.40;39.00;;;;;;5083504;28;20482;-45
2021/04/25 10:25:53;;;;;;;8.10;4.03;;;21.40;39.30;;;;;;5086397;28;20032;-48
2021/04/25 10:28:34;;;;;;;8.95;3.60;;;21.40;40.30;;;;;;5091251;28;20038;-46
2021/04/25 10:31:02;;;;;;;10.13;3.50;;;21.40;39.90;;;;;;5090141;28;20114;-47
2021/04/25 10:33:53;;;;;;;8.50;3.30;;;21.50;39.60;;;;;;5090917;28;20421;-47
2021/04/25 10:36:20;;;;;;;8.98;3.47;;;21.60;39.40;;;;;;5091162;28;20047;-44
2021/04/25 10:38:46;;;;;;;11.82;3.05;;;21.60;39.40;;;;;;5090772;28;20021;-45
2021/04/25 10:41:30;;;;;;;13.00;3.28;;;21.60;39.40;;;;;;5091182;28;20031;-50
2021/04/25 10:44:01;;;;;;;5.88;2.58;;;21.60;39.50;;;;;;5082926;28;20032;-49
2021/04/25 10:46:55;;;;;;;5.72;2.75;;;21.70;39.60;;;;;;5088428;28;20028;-52
2021/04/25 10:49:36;;;;;;;5.95;2.60;;;21.70;39.40;;;;;;5071345;28;20032;-52
2021/04/25 10:52:22;;;;;;;5.95;2.80;;;21.70;38.60;;;;;;5089513;28;20449;-54
2021/04/25 11:00:31;;;;;;;7.97;2.90;;;21.80;38.60;;;;;;5093038;28;20064;-50
2021/04/25 11:03:06;;;;;;;9.50;2.65;;;21.90;38.20;;;;;;5093206;28;20058;-49
2021/04/25 11:05:38;;;;;;;6.93;3.08;;;21.90;38.80;;;;;;5084288;28;20047;-52
2021/04/25 11:08:05;;;;;;;6.70;2.53;;;22.00;37.80;;;;;;5093498;28;20020;-50
2021/04/25 11:11:01;;;;;;;5.60;2.58;;;22.10;37.60;;;;;;5093003;28;20496;-54
2021/04/25 11:13:51;;;;;;;10.95;3.05;;;22.10;37.50;;;;;;5093080;28;20060;-48
2021/04/25 11:16:17;;;;;;;33.45;3.65;;;22.10;37.50;;;;;;5093411;28;20047;-48
2021/04/25 11:19:06;;;;;;;4.72;2.38;;;22.10;37.70;;;;;;5092453;28;20373;-49
2021/04/25 11:21:42;;;;;;;4.15;2.63;;;22.10;37.40;;;;;;5087047;28;20529;-57
2021/04/25 11:24:08;;;;;;;7.90;2.63;;;22.20;37.40;;;;;;5092898;28;20039;-50
2021/04/25 11:26:40;;;;;;;5.43;2.42;;;22.20;37.30;;;;;;5092539;28;20036;-55
2021/04/25 11:29:09;;;;;;;;;;;22.20;37.20;;;;;;5093375;28;20036;-53
2021/04/25 11:31:47;;;;;;;3.63;2.08;;;22.20;37.20;;;;;;5084313;28;19912;-56
2021/04/25 11:34:34;;;;;;;4.82;2.72;;;22.20;37.00;;;;;;5093125;28;20047;-53
2021/04/25 11:37:05;;;;;;;4.03;2.30;;;22.20;37.00;;;;;;5079039;28;20121;-48
2021/04/25 11:39:41;;;;;;;6.47;2.10;;;22.20;36.90;;;;;;5092441;28;20050;-54
2021/04/25 11:42:08;;;;;;;5.22;2.33;;;22.20;36.80;;;;;;5085262;28;20462;-51
2021/04/25 11:44:35;;;;;;;5.63;2.22;;;22.30;37.30;;;;;;5092876;28;20481;-54
2021/04/25 11:47:15;;;;;;;3.05;2.15;;;22.30;37.10;;;;;;5090805;28;20388;-55
2021/04/25 11:49:43;;;;;;;4.70;2.45;;;22.20;37.90;;;;;;5095247;28;20035;-53
2021/04/25 11:52:29;;;;;;;6.43;2.28;;;22.30;37.30;;;;;;5092355;28;20040;-51
2021/04/25 11:54:58;;;;;;;7.57;2.60;;;22.20;37.40;;;;;;5091471;28;20108;-54
2021/04/25 11:57:25;;;;;;;11.88;3.40;;;22.20;37.40;;;;;;5093135;28;20062;-48
2021/04/25 12:00:04;;;;;;;5.00;2.40;;;22.20;37.20;;;;;;5091741;28;20031;-54
2021/04/25 12:02:52;;;;;;;5.15;2.03;;;22.20;37.50;;;;;;5092027;28;20116;-53
2021/04/25 12:05:39;;;;;;;6.35;2.10;;;22.20;37.50;;;;;;5092264;28;20048;-55
2021/04/25 12:08:14;;;;;;;5.97;2.50;;;22.20;37.60;;;;;;5087086;28;20490;-51
2021/04/25 12:10:43;;;;;;;4.25;2.20;;;21.90;32.30;;;;;;5089913;28;20556;-52
2021/04/25 12:13:21;;;;;;;9.45;2.97;;;21.50;31.30;;;;;;5092603;28;20082;-47
2021/04/25 12:16:02;;;;;;;6.88;2.38;;;21.30;31.00;;;;;;5091580;28;20166;-57
2021/04/25 12:18:29;;;;;;;5.15;2.38;;;21.10;31.30;;;;;;5083541;28;20043;-56
2021/04/25 12:21:04;;;;;;;7.95;2.55;;;21.10;31.00;;;;;;5091308;28;20047;-56
2021/04/25 12:23:35;;;;;;;7.15;2.78;;;21.10;30.80;;;;;;5092131;28;20473;-53
2021/04/25 12:26:08;;;;;;;6.50;2.88;;;21.00;30.70;;;;;;5091661;28;20110;-53
2021/04/25 12:28:41;;;;;;;5.13;2.45;;;20.90;30.00;;;;;;5091741;28;20109;-57
2021/04/25 12:31:08;;;;;;;4.45;2.28;;;21.00;30.00;;;;;;5091934;28;20370;-56
2021/04/25 12:33:44;;;;;;;9.70;2.85;;;20.90;30.00;;;;;;5090469;28;20816;-59
2021/04/25 12:36:13;;;;;;;6.55;2.50;;;20.90;29.80;;;;;;5091731;28;20032;-54
2021/04/25 12:38:39;;;;;;;5.72;2.45;;;20.90;29.60;;;;;;5089620;28;20118;-52
2021/04/25 12:41:14;;;;;;;6.82;2.70;;;20.90;29.40;;;;;;5092307;28;20032;-55
2021/04/25 12:43:45;;;;;;;5.47;2.25;;;20.90;29.30;;;;;;5092737;28;20024;-53
2021/04/25 12:46:19;;;;;;;4.72;2.33;;;21.00;31.10;;;;;;5093199;28;20036;-58
2021/04/25 12:48:52;;;;;;;11.07;2.03;;;20.90;31.50;;;;;;5092711;28;20028;-57
2021/04/25 12:51:33;;;;;;;3.83;1.90;;;20.80;31.50;;;;;;5092366;28;20430;-50
2021/04/25 12:53:58;;;;;;;3.80;1.92;;;20.70;31.30;;;;;;5092590;28;20062;-56
2021/04/25 12:56:30;;;;;;;3.42;2.03;;;20.70;31.00;;;;;;5087428;28;20060;-57
2021/04/25 12:59:25;;;;;;;3.47;2.05;;;20.60;30.80;;;;;;5091635;28;20094;-59